sensor_id;sensor_type;location;lat;lon;timestamp;pressure;altitude;pressure_sealevel;temperature;humidity
53440;BME280;39333;47.044;15.080;2022-12-18T00:02:12;97429.75;;;-3.69;73.91
53440;BME280;39333;47.044;15.080;2022-12-18T00:04:39;97433.75;;;-3.65;74.19
53440;BME280;39333;47.044;15.080;2022-12-18T00:07:06;97434.47;;;-3.63;73.84
53440;BME280;39333;47.044;15.080;2022-12-18T00:09:33;97445.47;;;-3.82;72.95
53440;BME280;39333;47.044;15.080;2022-12-18T00:12:06;97438.03;;;-4.18;72.69
53440;BME280;39333;47.044;15.080;2022-12-18T00:14:44;97440.28;;;-4.36;74.39
53440;BME280;39333;47.044;15.080;2022-12-18T00:17:11;97443.00;;;-4.27;74.99
53440;BME280;39333;47.044;15.080;2022-12-18T00:19:37;97444.84;;;-4.06;74.69
53440;BME280;39333;47.044;15.080;2022-12-18T00:22:04;97444.84;;;-4.17;74.15
53440;BME280;39333;47.044;15.080;2022-12-18T00:24:32;97451.66;;;-4.05;74.29
53440;BME280;39333;47.044;15.080;2022-12-18T00:26:59;97450.47;;;-4.01;74.65
53440;BME280;39333;47.044;15.080;2022-12-18T00:29:25;97451.53;;;-3.93;74.75
53440;BME280;39333;47.044;15.080;2022-12-18T00:31:52;97463.31;;;-4.00;74.71
53440;BME280;39333;47.044;15.080;2022-12-18T00:34:19;97465.03;;;-3.89;74.74
53440;BME280;39333;47.044;15.080;2022-12-18T00:36:47;97468.59;;;-3.90;74.38
53440;BME280;39333;47.044;15.080;2022-12-18T00:39:14;97467.19;;;-3.94;74.59
53440;BME280;39333;47.044;15.080;2022-12-18T00:41:43;97481.69;;;-3.92;74.72
53440;BME280;39333;47.044;15.080;2022-12-18T00:44:30;97473.41;;;-3.85;74.23
53440;BME280;39333;47.044;15.080;2022-12-18T00:46:57;97473.47;;;-4.19;74.01
53440;BME280;39333;47.044;15.080;2022-12-18T00:49:24;97486.78;;;-4.24;74.00
53440;BME280;39333;47.044;15.080;2022-12-18T00:51:50;97485.81;;;-4.11;74.97
53440;BME280;39333;47.044;15.080;2022-12-18T00:54:20;97484.97;;;-4.01;74.64
53440;BME280;39333;47.044;15.080;2022-12-18T00:56:47;97488.38;;;-4.00;74.30
53440;BME280;39333;47.044;15.080;2022-12-18T00:59:17;97488.84;;;-3.95;74.21
53440;BME280;39333;47.044;15.080;2022-12-18T01:01:44;97490.16;;;-3.90;74.54
53440;BME280;39333;47.044;15.080;2022-12-18T01:04:11;97495.56;;;-3.93;74.10
53440;BME280;39333;47.044;15.080;2022-12-18T01:06:38;97498.16;;;-3.93;74.00
53440;BME280;39333;47.044;15.080;2022-12-18T01:09:05;97497.56;;;-3.96;73.51
53440;BME280;39333;47.044;15.080;2022-12-18T01:11:35;97494.50;;;-3.90;74.07
53440;BME280;39333;47.044;15.080;2022-12-18T01:14:03;97508.41;;;-3.91;73.62
53440;BME280;39333;47.044;15.080;2022-12-18T01:16:32;97507.59;;;-3.92;73.61
53440;BME280;39333;47.044;15.080;2022-12-18T01:18:59;97515.22;;;-3.90;73.50
53440;BME280;39333;47.044;15.080;2022-12-18T01:21:26;97520.41;;;-3.90;73.88
53440;BME280;39333;47.044;15.080;2022-12-18T01:23:55;97516.84;;;-3.89;73.66
53440;BME280;39333;47.044;15.080;2022-12-18T01:26:23;97518.06;;;-4.04;72.88
53440;BME280;39333;47.044;15.080;2022-12-18T01:28:51;97521.94;;;-4.21;72.93
53440;BME280;39333;47.044;15.080;2022-12-18T01:31:21;97524.56;;;-4.43;72.75
53440;BME280;39333;47.044;15.080;2022-12-18T01:33:50;97525.19;;;-4.86;73.64
53440;BME280;39333;47.044;15.080;2022-12-18T01:36:25;97529.94;;;-4.69;74.51
53440;BME280;39333;47.044;15.080;2022-12-18T01:38:52;97524.63;;;-4.67;74.90
53440;BME280;39333;47.044;15.080;2022-12-18T01:41:23;97531.03;;;-4.49;75.20
53440;BME280;39333;47.044;15.080;2022-12-18T01:43:57;97535.13;;;-4.35;74.75
53440;BME280;39333;47.044;15.080;2022-12-18T01:46:25;97537.16;;;-4.28;75.08
53440;BME280;39333;47.044;15.080;2022-12-18T01:49:00;97546.09;;;-4.20;74.49
53440;BME280;39333;47.044;15.080;2022-12-18T01:51:29;97552.47;;;-4.25;74.02
53440;BME280;39333;47.044;15.080;2022-12-18T01:53:57;97556.91;;;-4.38;73.40
53440;BME280;39333;47.044;15.080;2022-12-18T01:56:24;97548.34;;;-4.38;73.90
53440;BME280;39333;47.044;15.080;2022-12-18T01:59:03;97552.56;;;-4.37;74.21
53440;BME280;39333;47.044;15.080;2022-12-18T02:01:32;97550.00;;;-4.26;73.80
53440;BME280;39333;47.044;15.080;2022-12-18T02:04:24;97554.78;;;-4.33;73.66
53440;BME280;39333;47.044;15.080;2022-12-18T02:07:20;97557.00;;;-4.62;72.81
53440;BME280;39333;47.044;15.080;2022-12-18T02:10:07;97558.16;;;-4.66;73.49
53440;BME280;39333;47.044;15.080;2022-12-18T02:12:53;97560.31;;;-4.60;74.18
53440;BME280;39333;47.044;15.080;2022-12-18T02:15:38;97562.69;;;-4.45;74.39
53440;BME280;39333;47.044;15.080;2022-12-18T02:18:27;97560.09;;;-4.56;73.13
53440;BME280;39333;47.044;15.080;2022-12-18T02:26:34;97565.25;;;-4.56;73.41
53440;BME280;39333;47.044;15.080;2022-12-18T02:29:14;97565.72;;;-4.51;73.99
53440;BME280;39333;47.044;15.080;2022-12-18T02:31:52;97563.94;;;-4.51;73.49
53440;BME280;39333;47.044;15.080;2022-12-18T02:34:22;97570.66;;;-4.48;73.53
53440;BME280;39333;47.044;15.080;2022-12-18T02:36:53;97564.31;;;-4.55;73.44
53440;BME280;39333;47.044;15.080;2022-12-18T02:39:21;97558.41;;;-4.69;73.30
53440;BME280;39333;47.044;15.080;2022-12-18T02:41:58;97548.97;;;-4.70;73.75
53440;BME280;39333;47.044;15.080;2022-12-18T02:44:26;97557.47;;;-4.68;73.27
53440;BME280;39333;47.044;15.080;2022-12-18T02:46:54;97558.03;;;-4.75;73.58
53440;BME280;39333;47.044;15.080;2022-12-18T03:01:30;97572.53;;;-4.50;73.59
53440;BME280;39333;47.044;15.080;2022-12-18T03:04:07;97584.56;;;-4.49;73.36
53440;BME280;39333;47.044;15.080;2022-12-18T03:06:41;97594.69;;;-4.46;73.83
53440;BME280;39333;47.044;15.080;2022-12-18T03:09:33;97591.97;;;-4.45;73.68
53440;BME280;39333;47.044;15.080;2022-12-18T03:12:19;97581.63;;;-4.45;73.33
53440;BME280;39333;47.044;15.080;2022-12-18T03:15:17;97586.09;;;-4.47;73.26
53440;BME280;39333;47.044;15.080;2022-12-18T03:17:59;97588.31;;;-4.53;73.25
53440;BME280;39333;47.044;15.080;2022-12-18T03:20:31;97589.72;;;-4.49;73.62
53440;BME280;39333;47.044;15.080;2022-12-18T03:23:12;97588.06;;;-4.50;73.12
53440;BME280;39333;47.044;15.080;2022-12-18T03:25:46;97594.69;;;-4.46;73.64
53440;BME280;39333;47.044;15.080;2022-12-18T03:28:16;97592.44;;;-4.51;73.47
53440;BME280;39333;47.044;15.080;2022-12-18T03:30:53;97582.91;;;-4.50;73.49
53440;BME280;39333;47.044;15.080;2022-12-18T03:33:30;97591.47;;;-4.61;72.81
53440;BME280;39333;47.044;15.080;2022-12-18T03:35:58;97596.53;;;-4.60;73.23
53440;BME280;39333;47.044;15.080;2022-12-18T03:38:26;97589.00;;;-4.63;72.79
53440;BME280;39333;47.044;15.080;2022-12-18T03:41:03;97604.84;;;-4.78;72.83
53440;BME280;39333;47.044;15.080;2022-12-18T03:43:49;97605.22;;;-4.72;73.43
53440;BME280;39333;47.044;15.080;2022-12-18T03:48:59;97614.06;;;-4.63;73.33
53440;BME280;39333;47.044;15.080;2022-12-18T03:51:37;97616.53;;;-4.62;73.09
53440;BME280;39333;47.044;15.080;2022-12-18T03:54:07;97624.19;;;-4.60;73.22
53440;BME280;39333;47.044;15.080;2022-12-18T03:56:48;97619.84;;;-4.60;73.02
53440;BME280;39333;47.044;15.080;2022-12-18T03:59:16;97613.66;;;-4.70;72.75
53440;BME280;39333;47.044;15.080;2022-12-18T04:01:51;97618.03;;;-4.70;72.98
53440;BME280;39333;47.044;15.080;2022-12-18T04:04:21;97611.91;;;-4.69;72.99
53440;BME280;39333;47.044;15.080;2022-12-18T04:06:49;97618.63;;;-4.67;73.07
53440;BME280;39333;47.044;15.080;2022-12-18T04:09:19;97612.72;;;-4.69;72.83
53440;BME280;39333;47.044;15.080;2022-12-18T04:11:47;97613.31;;;-4.76;72.75
53440;BME280;39333;47.044;15.080;2022-12-18T04:14:15;97626.78;;;-4.84;72.37
53440;BME280;39333;47.044;15.080;2022-12-18T04:16:44;97636.31;;;-4.84;72.78
53440;BME280;39333;47.044;15.080;2022-12-18T04:19:15;97628.13;;;-5.02;71.90
53440;BME280;39333;47.044;15.080;2022-12-18T04:21:43;97634.84;;;-5.00;72.36
53440;BME280;39333;47.044;15.080;2022-12-18T04:24:12;97646.13;;;-5.01;72.67
53440;BME280;39333;47.044;15.080;2022-12-18T04:26:45;97640.63;;;-4.96;73.39
53440;BME280;39333;47.044;15.080;2022-12-18T04:29:15;97642.97;;;-5.04;72.17
53440;BME280;39333;47.044;15.080;2022-12-18T04:31:42;97647.00;;;-5.13;72.70
53440;BME280;39333;47.044;15.080;2022-12-18T04:34:10;97633.97;;;-5.11;73.17
53440;BME280;39333;47.044;15.080;2022-12-18T04:36:42;97648.00;;;-5.03;73.27
53440;BME280;39333;47.044;15.080;2022-12-18T04:39:09;97650.16;;;-4.97;73.22
53440;BME280;39333;47.044;15.080;2022-12-18T04:41:36;97655.81;;;-4.91;73.44
53440;BME280;39333;47.044;15.080;2022-12-18T04:44:04;97654.38;;;-4.96;73.20
53440;BME280;39333;47.044;15.080;2022-12-18T04:46:31;97654.50;;;-4.97;72.65
53440;BME280;39333;47.044;15.080;2022-12-18T04:48:57;97648.97;;;-5.04;72.58
53440;BME280;39333;47.044;15.080;2022-12-18T04:51:24;97658.22;;;-5.01;73.05
53440;BME280;39333;47.044;15.080;2022-12-18T04:53:53;97664.59;;;-5.05;72.44
53440;BME280;39333;47.044;15.080;2022-12-18T04:56:20;97677.22;;;-5.13;72.17
53440;BME280;39333;47.044;15.080;2022-12-18T04:58:47;97677.00;;;-5.10;73.13
53440;BME280;39333;47.044;15.080;2022-12-18T05:01:15;97684.03;;;-5.12;72.87
53440;BME280;39333;47.044;15.080;2022-12-18T05:03:42;97685.59;;;-5.10;72.91
53440;BME280;39333;47.044;15.080;2022-12-18T05:06:10;97686.41;;;-5.09;72.83
53440;BME280;39333;47.044;15.080;2022-12-18T05:08:37;97693.84;;;-5.05;72.35
53440;BME280;39333;47.044;15.080;2022-12-18T05:11:06;97689.31;;;-5.14;72.37
53440;BME280;39333;47.044;15.080;2022-12-18T05:13:34;97690.25;;;-5.15;72.51
53440;BME280;39333;47.044;15.080;2022-12-18T05:16:01;97691.53;;;-5.20;72.63
53440;BME280;39333;47.044;15.080;2022-12-18T05:18:29;97680.56;;;-5.24;72.35
53440;BME280;39333;47.044;15.080;2022-12-18T05:20:56;97678.09;;;-5.25;72.32
53440;BME280;39333;47.044;15.080;2022-12-18T05:23:23;97686.22;;;-5.19;72.48
53440;BME280;39333;47.044;15.080;2022-12-18T05:25:55;97689.63;;;-5.18;72.80
53440;BME280;39333;47.044;15.080;2022-12-18T05:28:24;97696.69;;;-5.20;72.39
53440;BME280;39333;47.044;15.080;2022-12-18T05:30:53;97702.81;;;-5.21;72.77
53440;BME280;39333;47.044;15.080;2022-12-18T05:33:21;97694.75;;;-5.30;72.03
53440;BME280;39333;47.044;15.080;2022-12-18T05:35:56;97699.31;;;-5.33;71.74
53440;BME280;39333;47.044;15.080;2022-12-18T05:38:25;97709.38;;;-5.54;72.20
53440;BME280;39333;47.044;15.080;2022-12-18T05:40:52;97707.09;;;-5.46;72.68
53440;BME280;39333;47.044;15.080;2022-12-18T05:43:20;97712.66;;;-5.39;72.92
53440;BME280;39333;47.044;15.080;2022-12-18T05:45:48;97715.16;;;-5.38;72.71
53440;BME280;39333;47.044;15.080;2022-12-18T05:48:16;97729.38;;;-5.32;72.82
53440;BME280;39333;47.044;15.080;2022-12-18T05:50:45;97724.56;;;-5.37;72.24
53440;BME280;39333;47.044;15.080;2022-12-18T05:53:13;97727.34;;;-5.40;72.52
53440;BME280;39333;47.044;15.080;2022-12-18T05:55:41;97729.09;;;-5.40;72.12
53440;BME280;39333;47.044;15.080;2022-12-18T05:58:10;97727.47;;;-5.41;72.52
53440;BME280;39333;47.044;15.080;2022-12-18T06:00:40;97727.34;;;-5.40;72.69
53440;BME280;39333;47.044;15.080;2022-12-18T06:03:09;97735.09;;;-5.40;72.54
53440;BME280;39333;47.044;15.080;2022-12-18T06:05:38;97731.91;;;-5.43;72.06
53440;BME280;39333;47.044;15.080;2022-12-18T06:08:05;97725.63;;;-5.52;72.18
53440;BME280;39333;47.044;15.080;2022-12-18T06:10:32;97720.13;;;-5.47;72.23
53440;BME280;39333;47.044;15.080;2022-12-18T06:13:00;97737.09;;;-5.56;71.78
53440;BME280;39333;47.044;15.080;2022-12-18T06:15:26;97739.34;;;-5.64;71.85
53440;BME280;39333;47.044;15.080;2022-12-18T06:17:53;97747.53;;;-5.70;72.40
53440;BME280;39333;47.044;15.080;2022-12-18T06:20:20;97744.72;;;-5.67;72.38
53440;BME280;39333;47.044;15.080;2022-12-18T06:22:47;97754.75;;;-5.63;72.82
53440;BME280;39333;47.044;15.080;2022-12-18T06:25:14;97757.13;;;-5.59;72.66
53440;BME280;39333;47.044;15.080;2022-12-18T06:27:40;97757.44;;;-5.51;72.45
53440;BME280;39333;47.044;15.080;2022-12-18T06:30:08;97753.59;;;-5.46;72.68
53440;BME280;39333;47.044;15.080;2022-12-18T06:32:35;97763.75;;;-5.43;72.61
53440;BME280;39333;47.044;15.080;2022-12-18T06:35:02;97758.38;;;-5.52;71.91
53440;BME280;39333;47.044;15.080;2022-12-18T06:37:31;97765.00;;;-5.61;71.82
53440;BME280;39333;47.044;15.080;2022-12-18T06:39:58;97779.97;;;-5.66;71.89
53440;BME280;39333;47.044;15.080;2022-12-18T06:42:24;97784.84;;;-5.61;72.47
53440;BME280;39333;47.044;15.080;2022-12-18T06:44:51;97777.59;;;-5.82;71.63
53440;BME280;39333;47.044;15.080;2022-12-18T06:47:18;97793.31;;;-5.72;72.56
53440;BME280;39333;47.044;15.080;2022-12-18T06:49:45;97793.72;;;-5.66;72.30
53440;BME280;39333;47.044;15.080;2022-12-18T06:52:11;97788.03;;;-5.58;72.48
53440;BME280;39333;47.044;15.080;2022-12-18T06:54:38;97788.25;;;-5.48;72.36
53440;BME280;39333;47.044;15.080;2022-12-18T06:57:05;97798.91;;;-5.53;71.88
53440;BME280;39333;47.044;15.080;2022-12-18T06:59:32;97804.06;;;-5.53;72.13
53440;BME280;39333;47.044;15.080;2022-12-18T07:01:59;97805.00;;;-5.54;71.65
53440;BME280;39333;47.044;15.080;2022-12-18T07:04:29;97803.84;;;-5.50;72.18
53440;BME280;39333;47.044;15.080;2022-12-18T07:06:56;97812.31;;;-5.48;71.98
53440;BME280;39333;47.044;15.080;2022-12-18T07:09:24;97814.56;;;-5.81;71.13
53440;BME280;39333;47.044;15.080;2022-12-18T07:11:51;97815.22;;;-5.90;72.01
53440;BME280;39333;47.044;15.080;2022-12-18T07:14:18;97822.25;;;-5.92;72.55
53440;BME280;39333;47.044;15.080;2022-12-18T07:16:45;97829.28;;;-5.69;73.32
53440;BME280;39333;47.044;15.080;2022-12-18T07:19:11;97832.28;;;-5.63;72.75
53440;BME280;39333;47.044;15.080;2022-12-18T07:21:38;97835.78;;;-5.51;72.94
53440;BME280;39333;47.044;15.080;2022-12-18T07:24:05;97832.59;;;-5.29;72.65
53440;BME280;39333;47.044;15.080;2022-12-18T07:26:32;97837.16;;;-5.20;72.06
53440;BME280;39333;47.044;15.080;2022-12-18T07:28:59;97840.25;;;-5.28;71.67
53440;BME280;39333;47.044;15.080;2022-12-18T07:31:26;97838.59;;;-5.29;72.03
53440;BME280;39333;47.044;15.080;2022-12-18T07:33:54;97835.78;;;-5.13;72.70
53440;BME280;39333;47.044;15.080;2022-12-18T07:36:21;97840.41;;;-4.93;72.12
53440;BME280;39333;47.044;15.080;2022-12-18T07:38:49;97832.00;;;-4.83;71.62
53440;BME280;39333;47.044;15.080;2022-12-18T07:41:16;97837.88;;;-4.69;71.79
53440;BME280;39333;47.044;15.080;2022-12-18T07:43:42;97834.53;;;-4.58;71.68
53440;BME280;39333;47.044;15.080;2022-12-18T07:46:11;97841.44;;;-4.46;71.25
53440;BME280;39333;47.044;15.080;2022-12-18T07:48:41;97846.56;;;-4.33;71.22
53440;BME280;39333;47.044;15.080;2022-12-18T07:51:09;97845.66;;;-4.21;71.22
53440;BME280;39333;47.044;15.080;2022-12-18T07:53:39;97851.25;;;-4.14;71.36
53440;BME280;39333;47.044;15.080;2022-12-18T07:56:11;97851.13;;;-4.13;70.45
53440;BME280;39333;47.044;15.080;2022-12-18T07:58:56;97852.78;;;-4.12;70.58
53440;BME280;39333;47.044;15.080;2022-12-18T08:01:24;97848.09;;;-4.07;70.19
53440;BME280;39333;47.044;15.080;2022-12-18T08:03:51;97855.16;;;-4.09;70.61
53440;BME280;39333;47.044;15.080;2022-12-18T08:06:18;97858.72;;;-3.99;70.93
53440;BME280;39333;47.044;15.080;2022-12-18T08:08:53;97869.13;;;-3.88;71.23
53440;BME280;39333;47.044;15.080;2022-12-18T08:11:22;97867.84;;;-3.82;70.60
53440;BME280;39333;47.044;15.080;2022-12-18T08:13:49;97856.94;;;-3.74;70.91
53440;BME280;39333;47.044;15.080;2022-12-18T08:16:17;97856.03;;;-3.62;70.92
53440;BME280;39333;47.044;15.080;2022-12-18T08:18:45;97845.44;;;-3.59;70.74
53440;BME280;39333;47.044;15.080;2022-12-18T08:21:14;97852.63;;;-3.52;70.55
53440;BME280;39333;47.044;15.080;2022-12-18T08:23:41;97847.59;;;-3.42;70.75
53440;BME280;39333;47.044;15.080;2022-12-18T08:26:10;97844.19;;;-3.31;70.29
53440;BME280;39333;47.044;15.080;2022-12-18T08:28:37;97845.97;;;-3.21;69.93
53440;BME280;39333;47.044;15.080;2022-12-18T08:31:04;97854.94;;;-3.13;69.57
53440;BME280;39333;47.044;15.080;2022-12-18T08:33:31;97856.00;;;-3.05;69.69
53440;BME280;39333;47.044;15.080;2022-12-18T08:35:59;97850.72;;;-2.92;69.58
53440;BME280;39333;47.044;15.080;2022-12-18T08:38:26;97854.22;;;-2.71;69.99
53440;BME280;39333;47.044;15.080;2022-12-18T08:41:07;97862.94;;;-2.50;69.67
53440;BME280;39333;47.044;15.080;2022-12-18T08:43:35;97860.44;;;-2.29;69.21
53440;BME280;39333;47.044;15.080;2022-12-18T08:46:21;97858.94;;;-2.11;68.33
53440;BME280;39333;47.044;15.080;2022-12-18T08:48:51;97848.59;;;-1.90;67.84
53440;BME280;39333;47.044;15.080;2022-12-18T08:51:19;97851.28;;;-1.80;66.69
53440;BME280;39333;47.044;15.080;2022-12-18T08:53:46;97860.31;;;-1.63;66.65
53440;BME280;39333;47.044;15.080;2022-12-18T08:56:14;97861.94;;;-1.42;66.54
53440;BME280;39333;47.044;15.080;2022-12-18T08:58:41;97869.06;;;-1.23;66.47
53440;BME280;39333;47.044;15.080;2022-12-18T09:01:09;97858.69;;;-1.13;65.70
53440;BME280;39333;47.044;15.080;2022-12-18T09:03:37;97867.53;;;-0.95;64.83
53440;BME280;39333;47.044;15.080;2022-12-18T09:06:05;97876.66;;;-0.80;64.31
53440;BME280;39333;47.044;15.080;2022-12-18T09:08:32;97883.72;;;-0.71;64.63
53440;BME280;39333;47.044;15.080;2022-12-18T09:10:59;97873.56;;;-0.64;64.50
53440;BME280;39333;47.044;15.080;2022-12-18T09:13:25;97873.50;;;-0.43;64.71
53440;BME280;39333;47.044;15.080;2022-12-18T09:15:53;97879.44;;;-0.31;63.55
53440;BME280;39333;47.044;15.080;2022-12-18T09:18:22;97879.47;;;-0.22;63.18
53440;BME280;39333;47.044;15.080;2022-12-18T09:20:49;97882.00;;;-0.01;63.12
53440;BME280;39333;47.044;15.080;2022-12-18T09:23:20;97883.75;;;0.18;62.51
53440;BME280;39333;47.044;15.080;2022-12-18T09:25:47;97888.31;;;0.35;62.66
53440;BME280;39333;47.044;15.080;2022-12-18T09:28:16;97884.06;;;0.44;61.60
53440;BME280;39333;47.044;15.080;2022-12-18T09:30:46;97891.34;;;0.59;62.13
53440;BME280;39333;47.044;15.080;2022-12-18T09:33:14;97893.94;;;0.69;61.71
53440;BME280;39333;47.044;15.080;2022-12-18T09:35:43;97884.19;;;0.81;61.42
53440;BME280;39333;47.044;15.080;2022-12-18T09:38:15;97873.56;;;0.92;60.53
53440;BME280;39333;47.044;15.080;2022-12-18T09:40:47;97868.44;;;1.10;60.35
53440;BME280;39333;47.044;15.080;2022-12-18T09:43:20;97858.19;;;1.26;59.63
53440;BME280;39333;47.044;15.080;2022-12-18T09:45:53;97855.41;;;1.37;59.72
53440;BME280;39333;47.044;15.080;2022-12-18T09:48:31;97855.78;;;1.42;58.78
53440;BME280;39333;47.044;15.080;2022-12-18T09:51:13;97857.31;;;1.35;57.02
53440;BME280;39333;47.044;15.080;2022-12-18T09:53:44;97852.72;;;1.47;56.99
53440;BME280;39333;47.044;15.080;2022-12-18T09:56:16;97853.88;;;1.44;58.11
53440;BME280;39333;47.044;15.080;2022-12-18T09:59:03;97859.78;;;1.36;58.86
53440;BME280;39333;47.044;15.080;2022-12-18T10:01:32;97855.81;;;1.32;59.70
53440;BME280;39333;47.044;15.080;2022-12-18T10:04:09;97857.16;;;1.46;57.49
53440;BME280;39333;47.044;15.080;2022-12-18T10:06:47;97855.41;;;1.37;57.71
53440;BME280;39333;47.044;15.080;2022-12-18T10:09:37;97850.09;;;1.19;58.46
53440;BME280;39333;47.044;15.080;2022-12-18T10:12:28;97850.31;;;1.35;59.82
53440;BME280;39333;47.044;15.080;2022-12-18T10:20:34;97844.09;;;1.46;59.75
53440;BME280;39333;47.044;15.080;2022-12-18T10:23:21;97844.47;;;1.79;59.53
53440;BME280;39333;47.044;15.080;2022-12-18T10:26:09;97844.78;;;1.66;59.64
53440;BME280;39333;47.044;15.080;2022-12-18T10:28:38;97850.47;;;1.61;60.00
53440;BME280;39333;47.044;15.080;2022-12-18T10:31:07;97847.34;;;1.48;59.98
53440;BME280;39333;47.044;15.080;2022-12-18T10:33:40;97840.16;;;1.60;59.82
53440;BME280;39333;47.044;15.080;2022-12-18T10:36:07;97835.56;;;1.89;59.77
53440;BME280;39333;47.044;15.080;2022-12-18T10:38:34;97837.59;;;1.78;59.80
53440;BME280;39333;47.044;15.080;2022-12-18T10:43:33;97830.88;;;1.93;60.35
53440;BME280;39333;47.044;15.080;2022-12-18T10:48:37;97828.59;;;1.62;61.67
53440;BME280;39333;47.044;15.080;2022-12-18T10:51:07;97828.78;;;1.51;61.76
53440;BME280;39333;47.044;15.080;2022-12-18T10:53:41;97827.88;;;1.43;63.99
53440;BME280;39333;47.044;15.080;2022-12-18T10:56:10;97833.03;;;1.25;63.09
53440;BME280;39333;47.044;15.080;2022-12-18T10:58:38;97829.19;;;1.29;65.36
53440;BME280;39333;47.044;15.080;2022-12-18T11:01:16;97828.75;;;0.96;63.66
53440;BME280;39333;47.044;15.080;2022-12-18T11:03:46;97819.25;;;0.39;65.05
53440;BME280;39333;47.044;15.080;2022-12-18T11:06:28;97824.06;;;0.05;67.36
53440;BME280;39333;47.044;15.080;2022-12-18T11:09:05;97826.59;;;-0.43;68.23
53440;BME280;39333;47.044;15.080;2022-12-18T11:11:40;97825.59;;;-0.71;68.97
53440;BME280;39333;47.044;15.080;2022-12-18T11:14:21;97825.31;;;-0.68;69.86
53440;BME280;39333;47.044;15.080;2022-12-18T11:16:50;97820.44;;;-0.42;70.89
53440;BME280;39333;47.044;15.080;2022-12-18T11:19:39;97817.00;;;-0.52;69.65
53440;BME280;39333;47.044;15.080;2022-12-18T11:22:23;97823.47;;;-0.37;71.45
53440;BME280;39333;47.044;15.080;2022-12-18T11:25:00;97807.59;;;-0.05;70.22
53440;BME280;39333;47.044;15.080;2022-12-18T11:28:46;97806.03;;;0.60;66.99
53440;BME280;39333;47.044;15.080;2022-12-18T11:30:47;97809.34;;;0.52;65.72
53440;BME280;39333;47.044;15.080;2022-12-18T11:33:21;97806.63;;;-0.04;67.23
53440;BME280;39333;47.044;15.080;2022-12-18T11:35:51;97811.16;;;-0.35;67.97
53440;BME280;39333;47.044;15.080;2022-12-18T11:38:24;97807.59;;;-0.24;69.99
53440;BME280;39333;47.044;15.080;2022-12-18T11:43:38;97806.22;;;-0.09;68.28
53440;BME280;39333;47.044;15.080;2022-12-18T11:46:13;97804.97;;;0.43;69.12
53440;BME280;39333;47.044;15.080;2022-12-18T11:49:09;97798.28;;;0.78;68.55
53440;BME280;39333;47.044;15.080;2022-12-18T11:54:36;97792.06;;;0.88;65.06
53440;BME280;39333;47.044;15.080;2022-12-18T11:57:28;97793.66;;;0.99;65.73
53440;BME280;39333;47.044;15.080;2022-12-18T12:09:20;97797.44;;;0.87;65.91
53440;BME280;39333;47.044;15.080;2022-12-18T12:19:38;97797.94;;;0.63;67.47
53440;BME280;39333;47.044;15.080;2022-12-18T12:30:21;97802.66;;;0.21;70.40
53440;BME280;39333;47.044;15.080;2022-12-18T12:38:34;97797.44;;;0.21;70.34
53440;BME280;39333;47.044;15.080;2022-12-18T12:41:07;97793.19;;;-0.09;71.45
53440;BME280;39333;47.044;15.080;2022-12-18T12:44:00;97799.84;;;-0.55;73.47
53440;BME280;39333;47.044;15.080;2022-12-18T12:46:31;97795.97;;;-0.70;74.24
53440;BME280;39333;47.044;15.080;2022-12-18T12:49:02;97799.59;;;-0.92;74.99
53440;BME280;39333;47.044;15.080;2022-12-18T12:51:39;97800.31;;;-0.80;75.47
53440;BME280;39333;47.044;15.080;2022-12-18T12:54:15;97802.38;;;-0.24;77.62
53440;BME280;39333;47.044;15.080;2022-12-18T12:56:51;97803.19;;;-0.14;76.27
53440;BME280;39333;47.044;15.080;2022-12-18T13:04:47;97801.53;;;-0.15;73.81
53440;BME280;39333;47.044;15.080;2022-12-18T13:07:41;97803.47;;;0.02;73.64
53440;BME280;39333;47.044;15.080;2022-12-18T13:10:14;97813.63;;;-0.14;73.02
53440;BME280;39333;47.044;15.080;2022-12-18T13:13:14;97818.84;;;0.05;74.67
53440;BME280;39333;47.044;15.080;2022-12-18T13:16:03;97820.63;;;0.05;73.38
53440;BME280;39333;47.044;15.080;2022-12-18T13:18:32;97823.25;;;0.24;74.86
53440;BME280;39333;47.044;15.080;2022-12-18T13:23:34;97835.88;;;0.19;73.71
53440;BME280;39333;47.044;15.080;2022-12-18T13:31:03;97846.31;;;0.09;72.80
53440;BME280;39333;47.044;15.080;2022-12-18T13:38:43;97848.97;;;-0.50;74.36
53440;BME280;39333;47.044;15.080;2022-12-18T13:43:49;97843.81;;;-0.21;74.93
53440;BME280;39333;47.044;15.080;2022-12-18T13:46:24;97840.78;;;-0.26;73.83
53440;BME280;39333;47.044;15.080;2022-12-18T13:49:14;97841.28;;;-0.42;74.21
53440;BME280;39333;47.044;15.080;2022-12-18T13:51:49;97845.84;;;-0.34;75.25
53440;BME280;39333;47.044;15.080;2022-12-18T13:54:28;97842.69;;;-0.38;74.79
53440;BME280;39333;47.044;15.080;2022-12-18T13:56:56;97843.25;;;-0.25;75.22
53440;BME280;39333;47.044;15.080;2022-12-18T13:59:41;97849.84;;;-0.21;74.89
53440;BME280;39333;47.044;15.080;2022-12-18T14:02:23;97850.50;;;-0.28;73.63
53440;BME280;39333;47.044;15.080;2022-12-18T14:04:51;97851.75;;;-0.23;73.81
53440;BME280;39333;47.044;15.080;2022-12-18T14:07:26;97847.56;;;-0.54;73.39
53440;BME280;39333;47.044;15.080;2022-12-18T14:10:02;97850.56;;;-0.59;73.08
53440;BME280;39333;47.044;15.080;2022-12-18T14:12:50;97851.91;;;-1.25;73.63
53440;BME280;39333;47.044;15.080;2022-12-18T14:15:32;97847.59;;;-1.57;75.57
53440;BME280;39333;47.044;15.080;2022-12-18T14:18:03;97854.00;;;-1.82;76.51
53440;BME280;39333;47.044;15.080;2022-12-18T14:20:35;97852.94;;;-1.58;77.30
53440;BME280;39333;47.044;15.080;2022-12-18T14:23:02;97864.59;;;-1.73;76.73
53440;BME280;39333;47.044;15.080;2022-12-18T14:25:30;97861.25;;;-1.64;78.23
53440;BME280;39333;47.044;15.080;2022-12-18T14:30:39;97860.81;;;-1.69;78.20
53440;BME280;39333;47.044;15.080;2022-12-18T14:33:13;97861.56;;;-1.79;77.90
53440;BME280;39333;47.044;15.080;2022-12-18T14:35:51;97871.38;;;-1.61;77.82
53440;BME280;39333;47.044;15.080;2022-12-18T14:38:34;97868.16;;;-1.54;77.14
53440;BME280;39333;47.044;15.080;2022-12-18T14:41:04;97876.59;;;-1.61;76.69
53440;BME280;39333;47.044;15.080;2022-12-18T14:43:33;97887.25;;;-1.64;76.72
53440;BME280;39333;47.044;15.080;2022-12-18T14:46:02;97879.66;;;-1.56;76.89
53440;BME280;39333;47.044;15.080;2022-12-18T14:48:41;97881.06;;;-1.52;77.18